Time;durP1;ratioP1;P1;durP2;ratioP2;P2;SDS_P1;SDS_P2;PMS_P1;PMS_P2;Temp;Humidity;BMP_temperature;BMP_pressure;BME280_temperature;BME280_humidity;BME280_pressure;Samples;Min_cycle;Max_cycle;Signal;HPM_P1;HPM_P2
2023/12/10 00:00:58;;;;;;;54.08;17.92;;;6.10;99.90;;;;;;4991617;28;20030;-67
2023/12/10 00:03:24;;;;;;;76.47;20.50;;;6.10;99.90;;;;;;4991791;28;20127;-67
2023/12/10 00:05:50;;;;;;;51.95;18.98;;;6.20;99.90;;;;;;4991012;28;20033;-67
2023/12/10 00:08:15;;;;;;;64.75;19.55;;;6.20;99.90;;;;;;4991396;28;20070;-66
2023/12/10 00:10:41;;;;;;;68.45;21.20;;;6.20;99.90;;;;;;4991743;28;20098;-67
2023/12/10 00:13:07;;;;;;;71.22;21.42;;;6.30;99.90;;;;;;4990027;28;20035;-68
2023/12/10 00:15:32;;;;;;;70.63;21.38;;;6.30;99.90;;;;;;4991093;28;20062;-69
2023/12/10 00:17:58;;;;;;;72.15;22.48;;;6.30;99.90;;;;;;4992014;28;20030;-67
2023/12/10 00:20:25;;;;;;;70.85;21.25;;;6.30;99.90;;;;;;4991661;28;20078;-68
2023/12/10 00:22:50;;;;;;;71.57;20.27;;;6.30;99.90;;;;;;4991722;28;20027;-66
2023/12/10 00:25:16;;;;;;;73.97;21.85;;;6.40;99.90;;;;;;4992609;28;20111;-68
2023/12/10 00:27:42;;;;;;;62.22;19.42;;;6.40;99.90;;;;;;4994787;28;20089;-68
2023/12/10 00:30:08;;;;;;;78.68;19.92;;;6.40;99.90;;;;;;4994025;28;20031;-71
2023/12/10 00:32:34;;;;;;;68.70;17.10;;;6.50;99.90;;;;;;4994706;28;20034;-69
2023/12/10 00:34:59;;;;;;;64.80;17.73;;;6.60;99.90;;;;;;4994906;28;20031;-69
2023/12/10 00:37:25;;;;;;;53.20;14.65;;;6.60;99.90;;;;;;4994986;28;20368;-68
2023/12/10 00:39:51;;;;;;;56.38;13.55;;;6.70;99.90;;;;;;4995195;28;20023;-67
2023/12/10 00:42:16;;;;;;;66.07;15.60;;;6.80;99.90;;;;;;4995396;28;20122;-69
2023/12/10 00:44:42;;;;;;;81.13;15.02;;;6.90;99.90;;;;;;4994991;28;20026;-69
2023/12/10 00:47:08;;;;;;;61.75;13.88;;;6.90;99.90;;;;;;4994756;28;20042;-68
2023/12/10 00:49:33;;;;;;;65.78;13.30;;;7.00;99.90;;;;;;4994595;28;20125;-69
2023/12/10 00:51:59;;;;;;;69.78;12.93;;;7.00;99.90;;;;;;4994675;28;20045;-68
2023/12/10 00:54:25;;;;;;;62.50;11.80;;;7.10;99.90;;;;;;4994438;28;20027;-69
2023/12/10 00:56:50;;;;;;;63.17;13.45;;;7.10;99.90;;;;;;4994562;28;20499;-68
2023/12/10 00:59:16;;;;;;;100.68;19.35;;;7.20;99.90;;;;;;4994088;28;20034;-69
2023/12/10 01:01:41;;;;;;;66.07;10.52;;;7.20;99.90;;;;;;4994600;28;20034;-70
2023/12/10 01:04:07;;;;;;;52.78;9.07;;;7.20;99.90;;;;;;4994630;28;20030;-69
2023/12/10 01:06:33;;;;;;;55.13;9.00;;;7.30;99.90;;;;;;4994726;28;20019;-69
2023/12/10 01:08:58;;;;;;;55.97;8.63;;;7.30;99.90;;;;;;4994949;28;20057;-67
2023/12/10 01:11:24;;;;;;;77.75;11.80;;;7.40;99.90;;;;;;4994517;28;20027;-69
2023/12/10 01:13:49;;;;;;;77.22;10.55;;;7.40;99.90;;;;;;4994384;28;20050;-68
2023/12/10 01:16:16;;;;;;;65.57;10.38;;;7.40;99.90;;;;;;4993076;28;20042;-70
2023/12/10 01:18:43;;;;;;;65.97;7.22;;;7.40;99.90;;;;;;4994127;28;20101;-68
2023/12/10 01:21:09;;;;;;;44.15;7.18;;;7.50;99.90;;;;;;4993590;28;20086;-67
2023/12/10 01:23:38;;;;;;;60.47;8.77;;;7.50;99.90;;;;;;4993595;28;20023;-70
2023/12/10 01:26:06;;;;;;;78.65;8.40;;;7.50;99.90;;;;;;4993918;28;20570;-70
2023/12/10 01:28:31;;;;;;;61.90;8.30;;;7.50;99.90;;;;;;4993878;28;20456;-70
2023/12/10 01:30:57;;;;;;;65.10;8.48;;;7.60;99.90;;;;;;4992508;28;20123;-69
2023/12/10 01:33:23;;;;;;;57.10;7.32;;;7.60;99.90;;;;;;4992386;28;20376;-70
2023/12/10 01:35:49;;;;;;;62.50;7.63;;;7.60;99.90;;;;;;4992616;28;20028;-73
2023/12/10 01:38:14;;;;;;;78.18;7.90;;;7.60;99.90;;;;;;4992175;28;20034;-68
2023/12/10 01:40:40;;;;;;;66.75;7.88;;;7.70;99.90;;;;;;4993611;28;20035;-70
2023/12/10 01:43:07;;;;;;;60.00;7.90;;;7.60;99.90;;;;;;4993840;28;20029;-69
2023/12/10 01:45:33;;;;;;;61.08;6.90;;;7.70;99.90;;;;;;4993761;28;20027;-71
2023/12/10 01:48:00;;;;;;;76.18;7.72;;;7.70;99.90;;;;;;4992612;28;20053;-70
2023/12/10 01:50:26;;;;;;;67.50;7.63;;;7.70;99.90;;;;;;4993818;28;20041;-69
2023/12/10 01:52:52;;;;;;;69.28;7.68;;;7.60;99.90;;;;;;4993246;28;20030;-69
2023/12/10 01:55:18;;;;;;;64.60;7.05;;;7.70;99.90;;;;;;4993422;28;20029;-71
2023/12/10 01:57:43;;;;;;;60.33;6.90;;;7.70;99.90;;;;;;4993234;28;20045;-67
2023/12/10 02:00:09;;;;;;;60.58;7.10;;;7.70;99.90;;;;;;4993313;28;20050;-70
2023/12/10 02:02:37;;;;;;;55.10;6.50;;;7.70;99.90;;;;;;4993073;28;20058;-69
2023/12/10 02:05:09;;;;;;;63.80;7.03;;;7.70;99.90;;;;;;4993569;28;20034;-70
2023/12/10 02:07:35;;;;;;;63.03;6.78;;;7.70;99.90;;;;;;4991568;28;20090;-69
2023/12/10 02:10:04;;;;;;;51.83;6.43;;;7.70;99.90;;;;;;4993871;28;20027;-69
2023/12/10 02:12:31;;;;;;;55.00;6.28;;;7.70;99.90;;;;;;4992724;28;20041;-69
2023/12/10 02:14:56;;;;;;;51.85;6.22;;;7.70;99.90;;;;;;4993510;28;20078;-68
2023/12/10 02:17:22;;;;;;;46.78;6.35;;;7.70;99.90;;;;;;4993569;28;20030;-68
2023/12/10 02:19:48;;;;;;;45.05;5.97;;;7.70;99.90;;;;;;4993350;28;20026;-70
2023/12/10 02:22:17;;;;;;;54.78;6.13;;;7.70;99.90;;;;;;4992867;28;20035;-67
2023/12/10 02:24:48;;;;;;;49.95;6.07;;;7.70;99.90;;;;;;4991666;28;20039;-68
2023/12/10 02:27:15;;;;;;;63.55;6.10;;;7.70;99.90;;;;;;4992841;28;20046;-67
2023/12/10 02:29:41;;;;;;;46.40;5.10;;;7.70;99.90;;;;;;4992400;28;20138;-69
2023/12/10 02:32:06;;;;;;;53.55;5.72;;;7.70;99.90;;;;;;4992981;28;20041;-70
2023/12/10 02:34:32;;;;;;;50.72;5.57;;;7.70;99.90;;;;;;5007953;28;20027;-67
2023/12/10 02:36:57;;;;;;;51.63;5.55;;;7.70;99.90;;;;;;4992952;28;20030;-68
2023/12/10 02:39:23;;;;;;;45.20;5.88;;;7.70;99.90;;;;;;4992841;28;20058;-68
2023/12/10 02:41:48;;;;;;;54.50;6.05;;;7.70;99.90;;;;;;4992630;28;20030;-70
2023/12/10 02:44:14;;;;;;;54.17;5.32;;;7.70;99.90;;;;;;4992716;28;20125;-68
2023/12/10 02:46:52;;;;;;;46.90;6.25;;;7.70;99.90;;;;;;4992491;28;20027;-70
2023/12/10 02:49:18;;;;;;;49.42;6.18;;;7.70;99.90;;;;;;4992365;28;20034;-68
2023/12/10 02:51:43;;;;;;;53.15;6.43;;;7.70;99.90;;;;;;4993367;28;20033;-69
2023/12/10 02:54:09;;;;;;;53.63;6.05;;;7.70;99.90;;;;;;4992368;28;20053;-69
2023/12/10 02:56:34;;;;;;;51.05;7.00;;;7.80;99.90;;;;;;4992646;28;20030;-68
2023/12/10 02:59:00;;;;;;;53.17;6.25;;;7.80;99.90;;;;;;4992316;28;20030;-69
2023/12/10 03:01:27;;;;;;;47.38;7.35;;;7.70;99.90;;;;;;4992712;28;20037;-69
2023/12/10 03:03:52;;;;;;;47.42;7.28;;;7.70;99.90;;;;;;4992040;28;20035;-70
2023/12/10 03:06:18;;;;;;;54.08;7.10;;;7.80;99.90;;;;;;4991101;28;20039;-69
2023/12/10 03:08:43;;;;;;;43.30;5.97;;;7.70;99.90;;;;;;4992521;28;20042;-70
2023/12/10 03:11:09;;;;;;;47.40;5.63;;;7.80;99.90;;;;;;4991946;28;20026;-73
2023/12/10 03:13:35;;;;;;;47.17;6.00;;;7.80;99.90;;;;;;4990836;28;20023;-70
2023/12/10 03:16:00;;;;;;;39.35;5.20;;;7.70;99.90;;;;;;4992208;28;20383;-71
2023/12/10 03:18:27;;;;;;;40.10;5.78;;;7.70;99.90;;;;;;4992765;28;20106;-70
2023/12/10 03:20:53;;;;;;;56.03;6.80;;;7.70;99.90;;;;;;4990980;28;20026;-70
2023/12/10 03:23:18;;;;;;;43.67;6.38;;;7.70;99.90;;;;;;4991275;28;20038;-71
2023/12/10 03:25:44;;;;;;;43.30;5.55;;;7.60;99.90;;;;;;4990127;28;21064;-70
2023/12/10 03:28:10;;;;;;;48.85;6.38;;;7.60;99.90;;;;;;4990344;28;20057;-68
2023/12/10 03:30:35;;;;;;;38.45;5.15;;;7.60;99.90;;;;;;4991809;28;20035;-70
2023/12/10 03:33:01;;;;;;;37.33;5.07;;;7.60;99.90;;;;;;4992435;28;20026;-70
2023/12/10 03:35:27;;;;;;;46.67;4.75;;;7.50;99.90;;;;;;4990519;28;20471;-68
2023/12/10 03:37:52;;;;;;;40.97;5.53;;;7.50;99.90;;;;;;4991513;28;20509;-67
2023/12/10 03:40:18;;;;;;;32.38;5.00;;;7.50;99.90;;;;;;4991491;28;20027;-67
2023/12/10 03:42:44;;;;;;;34.85;5.90;;;7.50;99.90;;;;;;4991262;28;20034;-68
2023/12/10 03:45:10;;;;;;;46.42;5.72;;;7.40;99.90;;;;;;4991375;28;20071;-69
2023/12/10 03:47:36;;;;;;;50.08;6.45;;;7.40;99.90;;;;;;4990998;28;20027;-70
2023/12/10 03:50:03;;;;;;;53.70;6.10;;;7.40;99.90;;;;;;4991781;28;20033;-69
2023/12/10 03:52:29;;;;;;;38.25;5.85;;;7.40;99.90;;;;;;4991583;28;20041;-70
2023/12/10 03:54:54;;;;;;;38.08;5.68;;;7.30;99.90;;;;;;4990751;28;20030;-67
2023/12/10 03:57:20;;;;;;;36.63;6.53;;;7.40;99.90;;;;;;4991693;28;20061;-69
2023/12/10 03:59:45;;;;;;;53.53;6.55;;;7.30;99.90;;;;;;4991803;28;20027;-70
2023/12/10 04:02:11;;;;;;;48.05;7.50;;;7.30;99.90;;;;;;4995400;28;20023;-70
2023/12/10 04:04:36;;;;;;;54.28;8.40;;;7.30;99.90;;;;;;4994886;28;20027;-68
2023/12/10 04:07:02;;;;;;;64.00;9.15;;;7.30;99.90;;;;;;4995481;28;20023;-70
2023/12/10 04:09:28;;;;;;;62.92;10.02;;;7.30;99.90;;;;;;4991097;28;20034;-69
2023/12/10 04:11:58;;;;;;;57.30;10.55;;;7.30;99.90;;;;;;4995127;28;20480;-68
2023/12/10 04:14:24;;;;;;;59.00;9.52;;;7.30;99.90;;;;;;4994320;28;20023;-68
2023/12/10 04:16:50;;;;;;;54.45;8.88;;;7.20;99.90;;;;;;4994816;28;20141;-70
2023/12/10 04:19:16;;;;;;;60.40;8.38;;;7.20;99.90;;;;;;4994646;28;20031;-69
2023/12/10 04:21:41;;;;;;;62.40;8.85;;;7.20;99.90;;;;;;4994901;28;20023;-68
2023/12/10 04:24:07;;;;;;;53.90;8.23;;;7.20;99.90;;;;;;4994791;28;20037;-69
2023/12/10 04:26:32;;;;;;;47.75;9.30;;;7.20;99.90;;;;;;4995081;28;20102;-69
2023/12/10 04:28:58;;;;;;;60.70;7.78;;;7.20;99.90;;;;;;4994824;28;20107;-70
2023/12/10 04:31:23;;;;;;;52.05;8.70;;;7.20;99.90;;;;;;4994805;28;20031;-70
2023/12/10 04:33:50;;;;;;;51.30;8.00;;;7.20;99.90;;;;;;4993615;28;20023;-69
2023/12/10 04:36:15;;;;;;;45.60;7.10;;;7.20;99.90;;;;;;4994043;28;20030;-69
2023/12/10 04:38:41;;;;;;;41.00;5.40;;;7.20;99.90;;;;;;4993357;28;20466;-69
2023/12/10 04:41:07;;;;;;;37.03;6.28;;;7.20;99.90;;;;;;4994693;28;20429;-73
2023/12/10 04:43:32;;;;;;;52.90;7.10;;;7.20;99.90;;;;;;4995140;28;20034;-70
2023/12/10 04:45:58;;;;;;;39.05;5.82;;;7.20;99.90;;;;;;4994620;28;20023;-68
2023/12/10 04:48:24;;;;;;;53.45;7.57;;;7.10;99.90;;;;;;4993892;28;20041;-69
2023/12/10 04:50:50;;;;;;;58.30;7.63;;;7.20;99.90;;;;;;4995097;28;20027;-73
2023/12/10 04:53:16;;;;;;;38.67;6.38;;;7.20;99.90;;;;;;4993905;28;20095;-70
2023/12/10 04:55:42;;;;;;;51.65;7.53;;;7.10;99.90;;;;;;4993619;28;20110;-72
2023/12/10 04:58:08;;;;;;;44.38;7.38;;;7.20;99.90;;;;;;4994455;28;20030;-69
2023/12/10 05:00:33;;;;;;;48.70;6.53;;;7.20;99.90;;;;;;4993471;28;20027;-69
2023/12/10 05:02:59;;;;;;;55.28;7.38;;;7.20;99.90;;;;;;4994625;28;20018;-69
2023/12/10 05:05:25;;;;;;;41.78;7.22;;;7.20;99.90;;;;;;4994477;28;20022;-69
2023/12/10 05:07:50;;;;;;;49.13;7.13;;;7.20;99.90;;;;;;4993936;28;20034;-70
2023/12/10 05:10:16;;;;;;;35.92;6.40;;;7.10;99.90;;;;;;4994286;28;20082;-71
2023/12/10 05:12:41;;;;;;;34.83;6.57;;;7.20;99.90;;;;;;4992210;28;20059;-70
2023/12/10 05:15:07;;;;;;;50.78;7.43;;;7.20;99.90;;;;;;4994200;28;20034;-70
2023/12/10 05:17:33;;;;;;;43.17;7.00;;;7.20;99.90;;;;;;4991378;28;20031;-69
2023/12/10 05:19:58;;;;;;;48.30;7.53;;;7.20;99.90;;;;;;4994409;28;20031;-70
2023/12/10 05:22:24;;;;;;;60.50;8.77;;;7.20;99.90;;;;;;4994068;28;20031;-69
2023/12/10 05:24:50;;;;;;;39.20;8.63;;;7.20;99.90;;;;;;5009572;28;20205;-69
2023/12/10 05:27:15;;;;;;;46.70;7.70;;;7.20;99.90;;;;;;4994029;28;20133;-68
2023/12/10 05:29:41;;;;;;;50.47;8.00;;;7.20;99.90;;;;;;4993678;28;20097;-71
2023/12/10 05:32:06;;;;;;;46.05;7.88;;;7.20;99.90;;;;;;4994371;28;20030;-70
2023/12/10 05:34:32;;;;;;;40.70;7.43;;;7.20;99.90;;;;;;4994386;28;20086;-70
2023/12/10 05:36:57;;;;;;;46.58;6.28;;;7.20;99.90;;;;;;4991717;28;20030;-67
2023/12/10 05:39:23;;;;;;;49.13;7.97;;;7.10;99.90;;;;;;4993436;28;20396;-68
2023/12/10 05:41:49;;;;;;;45.97;8.32;;;7.20;99.90;;;;;;4991822;28;20649;-70
2023/12/10 05:44:15;;;;;;;49.97;8.52;;;7.10;99.90;;;;;;4993511;28;20027;-70
2023/12/10 05:46:40;;;;;;;47.03;7.53;;;7.10;99.90;;;;;;4989573;28;20090;-67
2023/12/10 05:49:09;;;;;;;41.65;5.90;;;7.10;99.90;;;;;;4991156;28;20051;-69
2023/12/10 05:51:34;;;;;;;53.55;6.93;;;7.10;99.90;;;;;;4990928;28;20046;-67
2023/12/10 05:54:00;;;;;;;43.78;7.22;;;7.10;99.90;;;;;;4989729;28;20086;-67
2023/12/10 05:56:25;;;;;;;45.63;7.57;;;7.10;99.90;;;;;;4991176;28;20026;-69
2023/12/10 05:58:51;;;;;;;47.13;8.30;;;7.10;99.90;;;;;;4991368;28;20527;-67
2023/12/10 06:01:16;;;;;;;32.60;6.35;;;7.10;99.90;;;;;;4989566;28;20027;-68
2023/12/10 06:03:42;;;;;;;53.88;7.28;;;7.10;99.90;;;;;;4992237;28;20052;-67
2023/12/10 06:06:07;;;;;;;40.38;6.60;;;7.10;99.90;;;;;;4992788;28;20090;-70
2023/12/10 06:08:33;;;;;;;44.53;6.60;;;7.00;99.90;;;;;;4991277;28;20039;-68
2023/12/10 06:10:59;;;;;;;32.85;6.35;;;7.00;99.90;;;;;;4991858;28;20034;-70
2023/12/10 06:13:26;;;;;;;44.70;7.95;;;7.10;99.90;;;;;;4990249;28;20026;-67
2023/12/10 06:15:52;;;;;;;41.67;7.18;;;7.10;99.90;;;;;;4992576;28;20037;-67
2023/12/10 06:18:18;;;;;;;36.92;6.35;;;7.00;99.90;;;;;;4990646;28;20025;-67
2023/12/10 06:20:43;;;;;;;39.58;6.57;;;7.10;99.90;;;;;;4992368;28;20035;-68
2023/12/10 06:23:09;;;;;;;37.92;6.72;;;7.00;99.90;;;;;;4989812;28;20495;-68
2023/12/10 06:25:34;;;;;;;37.65;7.00;;;7.00;99.90;;;;;;4990320;28;21270;-69
2023/12/10 06:28:00;;;;;;;37.03;5.75;;;7.00;99.90;;;;;;4988508;28;20035;-69
2023/12/10 06:30:25;;;;;;;32.20;5.68;;;7.00;99.90;;;;;;4992019;28;20015;-68
2023/12/10 06:32:51;;;;;;;36.75;5.63;;;7.00;99.90;;;;;;4993351;28;20033;-68
2023/12/10 06:35:17;;;;;;;30.95;5.30;;;7.00;99.90;;;;;;4992848;28;20022;-68
2023/12/10 06:37:43;;;;;;;29.48;5.07;;;7.00;99.90;;;;;;4989065;28;20077;-69
2023/12/10 06:40:09;;;;;;;30.92;5.32;;;7.00;99.90;;;;;;4991882;28;20157;-70
2023/12/10 06:42:35;;;;;;;35.70;6.25;;;7.00;99.90;;;;;;4992298;28;20049;-69
2023/12/10 06:45:03;;;;;;;48.58;6.25;;;7.00;99.90;;;;;;4992723;28;20023;-70
2023/12/10 06:47:28;;;;;;;30.15;4.53;;;7.00;99.90;;;;;;4991771;28;20145;-69
2023/12/10 06:49:55;;;;;;;32.20;5.13;;;7.00;99.90;;;;;;4988105;28;20495;-68
2023/12/10 06:52:20;;;;;;;24.60;3.97;;;7.00;99.90;;;;;;4990983;28;20155;-70
2023/12/10 06:54:46;;;;;;;29.08;5.30;;;7.00;99.90;;;;;;4992370;28;20114;-69
2023/12/10 06:57:11;;;;;;;30.70;4.65;;;7.00;99.90;;;;;;4991604;28;21128;-67
2023/12/10 06:59:37;;;;;;;36.47;4.72;;;7.00;99.90;;;;;;4990412;28;20029;-70
2023/12/10 07:02:03;;;;;;;29.67;4.80;;;7.00;99.90;;;;;;4992498;28;20026;-70
2023/12/10 07:04:28;;;;;;;29.90;5.05;;;7.00;99.90;;;;;;4991664;28;20057;-69
2023/12/10 07:06:54;;;;;;;35.95;5.32;;;7.00;99.90;;;;;;4990636;28;20027;-70
2023/12/10 07:09:19;;;;;;;33.90;5.43;;;7.00;99.90;;;;;;4989529;28;20038;-69
2023/12/10 07:11:45;;;;;;;29.60;5.30;;;7.00;99.90;;;;;;4991535;28;20052;-69
2023/12/10 07:14:10;;;;;;;36.95;5.82;;;7.00;99.90;;;;;;4991011;28;20057;-69
2023/12/10 07:16:36;;;;;;;31.08;6.00;;;7.10;99.90;;;;;;4988157;28;20023;-69
2023/12/10 07:19:02;;;;;;;33.90;6.40;;;7.00;99.90;;;;;;4991940;28;20384;-70
2023/12/10 07:21:27;;;;;;;36.20;5.63;;;7.00;99.90;;;;;;4992924;28;20057;-72
2023/12/10 07:23:53;;;;;;;28.75;5.07;;;7.00;99.90;;;;;;4991757;28;20029;-68
2023/12/10 07:26:22;;;;;;;36.28;6.03;;;7.00;99.90;;;;;;4988784;28;20416;-69
2023/12/10 07:28:48;;;;;;;30.90;6.45;;;7.00;99.90;;;;;;4991512;28;20057;-68
2023/12/10 07:31:14;;;;;;;35.80;6.25;;;7.00;99.90;;;;;;4991750;28;20019;-67
2023/12/10 07:33:39;;;;;;;39.22;8.25;;;7.10;99.90;;;;;;4990944;28;20031;-70
2023/12/10 07:36:05;;;;;;;36.95;8.55;;;7.00;99.90;;;;;;4993356;28;20030;-70
2023/12/10 07:38:30;;;;;;;41.35;9.02;;;7.10;99.90;;;;;;4994145;28;20034;-69
2023/12/10 07:40:56;;;;;;;43.92;9.65;;;7.10;99.90;;;;;;4989776;28;20089;-70
2023/12/10 07:43:21;;;;;;;29.95;7.10;;;7.10;99.90;;;;;;4992510;28;20027;-68
2023/12/10 07:45:47;;;;;;;36.67;6.78;;;7.10;99.90;;;;;;4995070;28;20109;-70
2023/12/10 07:48:14;;;;;;;29.65;6.18;;;7.20;99.90;;;;;;4995680;28;20034;-69
2023/12/10 07:50:39;;;;;;;33.50;5.43;;;7.20;99.90;;;;;;4995035;28;20038;-70
2023/12/10 07:53:05;;;;;;;21.90;4.97;;;7.20;99.90;;;;;;4994222;28;20498;-69
2023/12/10 07:55:30;;;;;;;22.45;4.10;;;7.20;99.90;;;;;;4996001;28;20026;-69
2023/12/10 07:57:56;;;;;;;22.70;5.18;;;7.20;99.90;;;;;;4994206;28;20031;-70
2023/12/10 08:00:22;;;;;;;30.58;4.78;;;7.30;99.90;;;;;;4995336;28;20030;-69
2023/12/10 08:02:47;;;;;;;26.83;4.97;;;7.30;99.90;;;;;;4993792;28;20030;-71
2023/12/10 08:05:13;;;;;;;28.27;4.35;;;7.30;99.90;;;;;;4996766;28;20031;-69
2023/12/10 08:07:38;;;;;;;21.30;4.72;;;7.30;99.90;;;;;;4987859;28;21576;-69
2023/12/10 08:10:05;;;;;;;17.10;4.25;;;7.30;99.90;;;;;;4991544;28;20042;-70
2023/12/10 08:12:31;;;;;;;17.20;4.63;;;7.40;99.90;;;;;;4995615;28;20515;-70
2023/12/10 08:14:56;;;;;;;17.70;4.35;;;7.40;99.90;;;;;;4994348;28;20027;-70
2023/12/10 08:17:22;;;;;;;27.83;4.18;;;7.40;99.90;;;;;;4991376;28;20848;-69
2023/12/10 08:19:47;;;;;;;18.45;4.25;;;7.40;99.90;;;;;;4991718;28;20034;-69
2023/12/10 08:22:13;;;;;;;18.35;4.15;;;7.40;99.90;;;;;;4993639;28;20116;-69
2023/12/10 08:24:39;;;;;;;20.70;4.57;;;7.50;99.90;;;;;;4995576;28;20026;-68
2023/12/10 08:27:05;;;;;;;18.27;5.00;;;7.50;99.90;;;;;;4994311;28;20069;-68
2023/12/10 08:29:30;;;;;;;10.50;3.35;;;7.50;99.90;;;;;;4994920;28;20046;-68
2023/12/10 08:31:56;;;;;;;13.45;3.90;;;7.50;99.90;;;;;;4993892;28;20057;-69
2023/12/10 08:34:21;;;;;;;18.27;3.50;;;7.50;99.90;;;;;;4992124;28;20084;-70
2023/12/10 08:36:47;;;;;;;12.35;2.83;;;7.50;99.90;;;;;;4992626;28;20023;-69
2023/12/10 08:39:13;;;;;;;11.07;2.75;;;7.50;99.90;;;;;;4995973;28;20033;-69
2023/12/10 08:41:39;;;;;;;9.32;2.55;;;7.60;99.90;;;;;;4993057;28;20022;-68
2023/12/10 08:44:04;;;;;;;5.82;1.83;;;7.60;99.90;;;;;;4993396;28;20055;-68
2023/12/10 08:46:30;;;;;;;10.88;2.30;;;7.60;99.90;;;;;;4991465;28;20515;-70
2023/12/10 08:48:55;;;;;;;15.55;2.50;;;7.60;99.90;;;;;;4993622;28;20085;-69
2023/12/10 08:51:21;;;;;;;12.10;2.40;;;7.70;99.90;;;;;;4988768;28;20103;-68
2023/12/10 08:53:47;;;;;;;8.07;2.95;;;7.70;99.90;;;;;;4988061;28;20128;-69
2023/12/10 08:56:12;;;;;;;13.52;2.40;;;7.70;99.90;;;;;;4991768;28;20106;-68
2023/12/10 08:58:38;;;;;;;14.10;3.33;;;7.70;99.90;;;;;;4993290;28;20069;-70
2023/12/10 09:01:05;;;;;;;17.38;3.22;;;7.70;99.90;;;;;;4993493;28;20033;-68
2023/12/10 09:03:30;;;;;;;19.50;3.47;;;7.70;99.90;;;;;;4993437;28;20053;-70
2023/12/10 09:05:58;;;;;;;13.10;3.42;;;7.70;99.90;;;;;;4992949;28;20026;-69
2023/12/10 09:08:26;;;;;;;14.45;2.95;;;7.80;99.90;;;;;;4990147;28;20041;-70
2023/12/10 09:10:55;;;;;;;19.23;3.72;;;7.80;99.90;;;;;;4995165;28;20026;-68
2023/12/10 09:13:20;;;;;;;19.38;3.20;;;7.80;99.90;;;;;;4994484;28;20049;-69
2023/12/10 09:15:46;;;;;;;23.02;3.20;;;7.90;99.90;;;;;;4993055;28;20480;-69
2023/12/10 09:18:11;;;;;;;21.95;3.65;;;7.80;99.90;;;;;;4991847;28;20059;-71
2023/12/10 09:20:37;;;;;;;17.50;3.42;;;7.90;99.90;;;;;;4993897;28;20038;-69
2023/12/10 09:23:02;;;;;;;25.30;5.43;;;7.90;99.90;;;;;;4992994;28;20069;-71
2023/12/10 09:25:28;;;;;;;22.77;4.95;;;7.90;99.90;;;;;;4987465;28;20047;-69
2023/12/10 09:27:54;;;;;;;28.65;4.70;;;7.90;99.90;;;;;;4992487;28;20030;-67
2023/12/10 09:30:19;;;;;;;24.67;4.97;;;7.90;99.90;;;;;;4991539;28;20117;-69
2023/12/10 09:32:45;;;;;;;26.00;3.70;;;7.90;99.90;;;;;;4993688;28;20034;-68
2023/12/10 09:35:10;;;;;;;29.63;4.90;;;7.90;99.90;;;;;;4994122;28;20029;-68
2023/12/10 09:37:39;;;;;;;29.52;4.18;;;7.90;99.90;;;;;;4994320;28;20019;-69
2023/12/10 09:40:05;;;;;;;22.80;4.78;;;7.90;99.90;;;;;;4993254;28;20026;-71
2023/12/10 09:42:31;;;;;;;31.02;3.97;;;7.90;99.90;;;;;;4993471;28;20412;-68
2023/12/10 09:44:56;;;;;;;24.05;3.78;;;7.90;99.90;;;;;;4994453;28;20037;-67
2023/12/10 09:47:24;;;;;;;25.27;3.80;;;7.90;99.90;;;;;;4993018;28;20039;-68
2023/12/10 09:49:54;;;;;;;18.55;3.65;;;7.90;99.90;;;;;;4993758;28;20494;-68
2023/12/10 09:52:19;;;;;;;28.88;4.43;;;7.90;99.90;;;;;;4990367;28;20033;-68
2023/12/10 09:54:45;;;;;;;30.80;4.20;;;7.90;99.90;;;;;;4993487;28;20034;-69
2023/12/10 09:57:13;;;;;;;29.17;4.30;;;7.90;99.90;;;;;;4989795;28;20041;-71
2023/12/10 09:59:38;;;;;;;32.38;3.78;;;7.90;99.90;;;;;;4992889;28;20090;-68
2023/12/10 10:02:05;;;;;;;33.10;4.90;;;7.90;99.90;;;;;;4993512;28;20065;-69
2023/12/10 10:04:31;;;;;;;33.83;5.10;;;7.90;99.90;;;;;;4991680;28;20050;-68
2023/12/10 10:06:57;;;;;;;24.63;4.28;;;7.90;99.90;;;;;;4988472;28;20035;-68
2023/12/10 10:09:23;;;;;;;34.17;4.60;;;7.90;99.90;;;;;;4990741;28;20094;-69
2023/12/10 10:11:50;;;;;;;34.10;4.68;;;8.00;99.90;;;;;;4992896;28;20121;-70
2023/12/10 10:14:17;;;;;;;28.50;3.78;;;8.00;99.90;;;;;;4988975;28;20054;-69
2023/12/10 10:16:49;;;;;;;28.55;3.97;;;8.00;99.90;;;;;;4991047;28;20134;-69
2023/12/10 10:19:15;;;;;;;37.28;5.22;;;8.10;99.90;;;;;;4991711;28;20038;-70
2023/12/10 10:21:44;;;;;;;32.72;4.13;;;8.20;99.90;;;;;;4991819;28;20030;-68
2023/12/10 10:24:11;;;;;;;30.35;5.70;;;8.30;99.90;;;;;;4994058;28;20050;-66
2023/12/10 10:26:38;;;;;;;20.10;5.93;;;8.40;99.90;;;;;;4991962;28;20048;-68
2023/12/10 10:29:05;;;;;;;39.20;9.25;;;8.40;99.90;;;;;;4991722;28;20049;-69
2023/12/10 10:31:35;;;;;;;27.63;6.53;;;8.50;99.90;;;;;;4991441;28;20518;-69
2023/12/10 10:34:05;;;;;;;28.05;6.53;;;8.60;99.90;;;;;;4990939;28;20030;-67
2023/12/10 10:36:32;;;;;;;32.28;5.47;;;8.70;99.90;;;;;;4991814;28;20061;-69
2023/12/10 10:38:58;;;;;;;31.70;4.78;;;8.80;99.90;;;;;;4992017;28;20121;-66
2023/12/10 10:41:25;;;;;;;24.35;4.15;;;8.80;99.90;;;;;;4992015;28;20062;-67
2023/12/10 10:43:50;;;;;;;30.25;4.07;;;8.80;99.90;;;;;;4992553;28;20054;-69
2023/12/10 10:46:20;;;;;;;18.00;3.92;;;8.70;99.90;;;;;;4987661;28;20089;-67
2023/12/10 10:48:52;;;;;;;20.60;3.17;;;8.70;99.90;;;;;;4991844;28;20027;-67
2023/12/10 10:51:24;;;;;;;26.13;4.07;;;8.70;99.90;;;;;;4976732;28;20479;-69
2023/12/10 10:53:53;;;;;;;23.20;3.55;;;8.70;99.90;;;;;;4987689;28;20101;-67
2023/12/10 10:56:19;;;;;;;24.42;3.78;;;8.70;99.90;;;;;;4991598;28;20055;-67
2023/12/10 10:58:45;;;;;;;15.70;3.03;;;8.70;99.90;;;;;;4992025;28;20018;-68
2023/12/10 11:01:36;;;;;;;25.70;4.00;;;8.70;99.90;;;;;;4991894;28;20530;-68
2023/12/10 11:04:02;;;;;;;26.50;4.32;;;8.60;99.90;;;;;;4991642;28;20029;-66
2023/12/10 11:06:27;;;;;;;12.45;3.33;;;8.60;99.90;;;;;;4991803;28;20038;-68
2023/12/10 11:08:59;;;;;;;18.52;3.38;;;8.50;99.90;;;;;;4991366;28;20030;-70
2023/12/10 11:11:26;;;;;;;20.55;4.90;;;8.50;99.90;;;;;;4991384;28;20062;-68
2023/12/10 11:13:53;;;;;;;13.15;2.80;;;8.40;99.90;;;;;;4991407;28;20029;-68
2023/12/10 11:16:19;;;;;;;14.57;3.90;;;8.40;99.90;;;;;;4991041;28;20022;-68
2023/12/10 11:18:52;;;;;;;17.60;4.32;;;8.40;99.90;;;;;;4990534;28;20037;-67
2023/12/10 11:21:18;;;;;;;15.88;3.58;;;8.40;99.90;;;;;;4991061;28;20035;-69
2023/12/10 11:23:44;;;;;;;13.23;2.17;;;8.40;99.90;;;;;;4991483;28;20046;-68
2023/12/10 11:26:10;;;;;;;11.07;2.70;;;8.30;99.90;;;;;;4953657;28;1071373;-68
2023/12/10 11:28:35;;;;;;;14.98;5.55;;;8.30;99.90;;;;;;4990889;28;20399;-70
2023/12/10 11:31:01;;;;;;;6.53;1.50;;;8.30;99.90;;;;;;4992651;28;20027;-70
2023/12/10 11:33:27;;;;;;;8.60;1.85;;;8.30;99.90;;;;;;4991123;28;20058;-71
2023/12/10 11:36:00;;;;;;;8.00;1.45;;;8.30;99.90;;;;;;4992104;28;20035;-71
2023/12/10 11:38:25;;;;;;;2.88;1.30;;;8.30;99.90;;;;;;4991065;28;20027;-71
2023/12/10 11:40:52;;;;;;;4.65;1.33;;;8.30;99.90;;;;;;4992321;28;20121;-69
2023/12/10 11:43:19;;;;;;;6.75;1.48;;;8.30;99.90;;;;;;5007275;28;20432;-72
2023/12/10 11:45:44;;;;;;;7.43;1.40;;;8.30;99.90;;;;;;4992496;28;20018;-71
2023/12/10 11:48:10;;;;;;;3.25;1.33;;;8.30;99.90;;;;;;4992195;28;20034;-69
2023/12/10 11:50:36;;;;;;;5.50;1.40;;;8.30;99.90;;;;;;4989923;28;20026;-68
2023/12/10 11:53:03;;;;;;;6.90;2.78;;;8.30;99.90;;;;;;4991726;28;20086;-69
2023/12/10 11:55:30;;;;;;;5.13;1.60;;;8.30;99.90;;;;;;4991455;28;20421;-69
2023/12/10 11:57:56;;;;;;;13.40;2.00;;;8.30;99.90;;;;;;4991171;28;20023;-69
2023/12/10 12:00:23;;;;;;;17.80;2.85;;;8.30;99.90;;;;;;4991114;28;20031;-71
2023/12/10 12:02:48;;;;;;;8.57;2.28;;;8.30;99.90;;;;;;4988089;28;20027;-70
2023/12/10 12:05:15;;;;;;;13.02;2.55;;;8.30;99.90;;;;;;4991633;28;20026;-73
2023/12/10 12:07:42;;;;;;;10.20;2.28;;;8.30;99.90;;;;;;4989271;28;20033;-71
2023/12/10 12:10:09;;;;;;;14.27;2.80;;;8.30;99.90;;;;;;4987990;28;20049;-73
2023/12/10 12:12:42;;;;;;;10.32;2.67;;;8.30;99.90;;;;;;4985306;28;20058;-73
2023/12/10 12:15:09;;;;;;;10.75;2.58;;;8.30;99.90;;;;;;4990372;28;20485;-71
2023/12/10 12:17:37;;;;;;;12.15;2.97;;;8.30;99.90;;;;;;4988926;28;20381;-72
2023/12/10 12:20:24;;;;;;;10.68;2.55;;;8.30;99.90;;;;;;4990409;28;20054;-71
2023/12/10 12:22:50;;;;;;;9.57;2.40;;;8.30;99.90;;;;;;4994502;28;20026;-71
2023/12/10 12:25:19;;;;;;;15.20;3.20;;;8.30;99.90;;;;;;4995214;28;20480;-71
2023/12/10 12:27:45;;;;;;;17.15;3.40;;;8.20;99.90;;;;;;4995773;28;20034;-72
2023/12/10 12:30:12;;;;;;;12.10;2.95;;;8.20;99.90;;;;;;4993374;28;20043;-70
2023/12/10 12:32:38;;;;;;;12.00;3.03;;;8.30;99.90;;;;;;4993965;28;20038;-69
2023/12/10 12:35:05;;;;;;;10.82;2.72;;;8.20;99.90;;;;;;4994200;28;20025;-70
2023/12/10 12:37:30;;;;;;;14.18;2.72;;;8.30;99.90;;;;;;4995549;28;20027;-72
2023/12/10 12:39:56;;;;;;;16.27;3.20;;;8.20;99.90;;;;;;4990869;28;20034;-69